sensor_id;sensor_type;location;lat;lon;timestamp;pressure;altitude;pressure_sealevel;temperature;humidity
62025;BME280;47978;49.118;12.146;2023-10-19T00:01:43;96140.09;;;6.62;100.00
62025;BME280;47978;49.118;12.146;2023-10-19T00:05:44;96137.06;;;6.41;100.00
62025;BME280;47978;49.118;12.146;2023-10-19T00:09:46;96129.50;;;6.46;100.00
62025;BME280;47978;49.118;12.146;2023-10-19T00:13:48;96127.78;;;6.59;100.00
62025;BME280;47978;49.118;12.146;2023-10-19T00:17:51;96111.44;;;6.54;100.00
62025;BME280;47978;49.118;12.146;2023-10-19T00:21:52;96091.16;;;6.64;100.00
62025;BME280;47978;49.118;12.146;2023-10-19T00:25:53;96081.72;;;6.87;100.00
62025;BME280;47978;49.118;12.146;2023-10-19T00:29:55;96062.03;;;7.03;100.00
62025;BME280;47978;49.118;12.146;2023-10-19T00:33:58;96071.78;;;7.09;100.00
62025;BME280;47978;49.118;12.146;2023-10-19T00:37:59;96044.56;;;6.50;100.00
62025;BME280;47978;49.118;12.146;2023-10-19T00:42:01;96036.81;;;6.52;100.00
62025;BME280;47978;49.118;12.146;2023-10-19T00:46:02;96025.56;;;6.71;100.00
62025;BME280;47978;49.118;12.146;2023-10-19T00:50:06;96023.56;;;7.03;100.00
62025;BME280;47978;49.118;12.146;2023-10-19T00:54:08;96041.41;;;6.74;100.00
62025;BME280;47978;49.118;12.146;2023-10-19T00:58:10;96049.00;;;6.68;100.00
62025;BME280;47978;49.118;12.146;2023-10-19T01:02:12;96044.88;;;6.88;100.00
62025;BME280;47978;49.118;12.146;2023-10-19T01:06:15;96054.09;;;6.92;100.00
62025;BME280;47978;49.118;12.146;2023-10-19T01:10:16;96046.25;;;6.68;100.00
62025;BME280;47978;49.118;12.146;2023-10-19T01:14:18;96036.22;;;6.64;100.00
62025;BME280;47978;49.118;12.146;2023-10-19T01:18:20;96028.19;;;6.76;100.00
62025;BME280;47978;49.118;12.146;2023-10-19T01:22:22;96031.81;;;6.54;100.00
62025;BME280;47978;49.118;12.146;2023-10-19T01:26:25;96027.53;;;6.79;100.00
62025;BME280;47978;49.118;12.146;2023-10-19T01:30:26;96014.63;;;6.88;100.00
62025;BME280;47978;49.118;12.146;2023-10-19T01:34:28;96012.78;;;6.58;100.00
62025;BME280;47978;49.118;12.146;2023-10-19T01:38:30;96006.72;;;6.38;100.00
62025;BME280;47978;49.118;12.146;2023-10-19T01:42:33;96000.59;;;6.90;100.00
62025;BME280;47978;49.118;12.146;2023-10-19T01:46:34;95993.66;;;6.92;100.00
62025;BME280;47978;49.118;12.146;2023-10-19T01:50:36;95984.06;;;6.72;100.00
62025;BME280;47978;49.118;12.146;2023-10-19T01:54:38;95978.91;;;6.80;100.00
62025;BME280;47978;49.118;12.146;2023-10-19T01:58:41;95979.59;;;7.03;100.00
62025;BME280;47978;49.118;12.146;2023-10-19T02:02:43;95979.78;;;7.06;100.00
62025;BME280;47978;49.118;12.146;2023-10-19T02:06:44;95970.56;;;7.02;100.00
62025;BME280;47978;49.118;12.146;2023-10-19T02:10:46;95975.81;;;6.72;100.00
62025;BME280;47978;49.118;12.146;2023-10-19T02:14:49;95978.91;;;6.88;100.00
62025;BME280;47978;49.118;12.146;2023-10-19T02:18:51;95971.81;;;6.87;100.00
62025;BME280;47978;49.118;12.146;2023-10-19T02:22:52;95978.47;;;6.95;100.00
62025;BME280;47978;49.118;12.146;2023-10-19T02:26:54;95980.09;;;7.13;100.00
62025;BME280;47978;49.118;12.146;2023-10-19T02:30:58;95974.94;;;7.12;100.00
62025;BME280;47978;49.118;12.146;2023-10-19T02:34:59;95967.22;;;6.65;100.00
62025;BME280;47978;49.118;12.146;2023-10-19T02:39:01;95962.78;;;6.87;100.00
62025;BME280;47978;49.118;12.146;2023-10-19T02:43:03;95942.56;;;6.91;100.00
62025;BME280;47978;49.118;12.146;2023-10-19T02:47:06;95940.97;;;7.08;100.00
62025;BME280;47978;49.118;12.146;2023-10-19T02:51:07;95935.06;;;6.66;100.00
62025;BME280;47978;49.118;12.146;2023-10-19T02:55:09;95935.91;;;6.66;100.00
62025;BME280;47978;49.118;12.146;2023-10-19T02:59:10;95928.44;;;6.58;100.00
62025;BME280;47978;49.118;12.146;2023-10-19T03:03:13;95935.25;;;6.61;100.00
62025;BME280;47978;49.118;12.146;2023-10-19T03:07:15;95936.56;;;6.72;100.00
62025;BME280;47978;49.118;12.146;2023-10-19T03:11:16;95924.13;;;6.74;100.00
62025;BME280;47978;49.118;12.146;2023-10-19T03:15:18;95925.22;;;6.65;100.00
62025;BME280;47978;49.118;12.146;2023-10-19T03:19:21;95920.88;;;6.64;100.00
62025;BME280;47978;49.118;12.146;2023-10-19T03:23:22;95919.88;;;6.60;100.00
62025;BME280;47978;49.118;12.146;2023-10-19T03:27:24;95925.22;;;6.56;100.00
62025;BME280;47978;49.118;12.146;2023-10-19T03:31:25;95931.16;;;6.41;100.00
62025;BME280;47978;49.118;12.146;2023-10-19T03:35:28;95917.03;;;6.25;100.00
62025;BME280;47978;49.118;12.146;2023-10-19T03:39:29;95890.38;;;6.25;100.00
62025;BME280;47978;49.118;12.146;2023-10-19T03:43:31;95886.88;;;6.34;100.00
62025;BME280;47978;49.118;12.146;2023-10-19T03:47:32;95884.97;;;6.60;100.00
62025;BME280;47978;49.118;12.146;2023-10-19T03:51:35;95884.88;;;7.00;100.00
62025;BME280;47978;49.118;12.146;2023-10-19T03:55:36;95887.72;;;6.60;100.00
62025;BME280;47978;49.118;12.146;2023-10-19T03:59:38;95873.00;;;6.39;100.00
62025;BME280;47978;49.118;12.146;2023-10-19T04:03:39;95864.41;;;6.31;100.00
62025;BME280;47978;49.118;12.146;2023-10-19T04:07:42;95854.41;;;6.36;100.00
62025;BME280;47978;49.118;12.146;2023-10-19T04:11:43;95848.25;;;6.21;100.00
62025;BME280;47978;49.118;12.146;2023-10-19T04:15:45;95854.94;;;6.46;100.00
62025;BME280;47978;49.118;12.146;2023-10-19T04:19:46;95864.66;;;6.61;100.00
62025;BME280;47978;49.118;12.146;2023-10-19T04:23:49;95847.16;;;6.48;100.00
62025;BME280;47978;49.118;12.146;2023-10-19T04:27:50;95834.44;;;6.61;100.00
62025;BME280;47978;49.118;12.146;2023-10-19T04:31:52;95817.28;;;6.47;100.00
62025;BME280;47978;49.118;12.146;2023-10-19T04:35:53;95794.53;;;6.38;100.00
62025;BME280;47978;49.118;12.146;2023-10-19T04:39:56;95786.75;;;6.48;100.00
62025;BME280;47978;49.118;12.146;2023-10-19T04:43:57;95750.91;;;6.71;100.00
62025;BME280;47978;49.118;12.146;2023-10-19T04:47:59;95754.47;;;6.89;100.00
62025;BME280;47978;49.118;12.146;2023-10-19T04:52:00;95754.94;;;6.73;100.00
62025;BME280;47978;49.118;12.146;2023-10-19T04:56:04;95798.56;;;7.01;100.00
62025;BME280;47978;49.118;12.146;2023-10-19T05:00:05;95842.19;;;6.85;100.00
62025;BME280;47978;49.118;12.146;2023-10-19T05:04:07;95842.03;;;6.73;100.00
62025;BME280;47978;49.118;12.146;2023-10-19T05:08:08;95850.59;;;6.80;100.00
62025;BME280;47978;49.118;12.146;2023-10-19T05:12:11;95860.13;;;6.91;100.00
62025;BME280;47978;49.118;12.146;2023-10-19T05:16:13;95877.91;;;6.85;100.00
62025;BME280;47978;49.118;12.146;2023-10-19T05:20:14;95882.94;;;6.92;100.00
62025;BME280;47978;49.118;12.146;2023-10-19T05:24:16;95886.16;;;6.85;100.00
62025;BME280;47978;49.118;12.146;2023-10-19T05:28:18;95897.13;;;6.68;100.00
62025;BME280;47978;49.118;12.146;2023-10-19T05:32:20;95893.41;;;6.64;100.00
62025;BME280;47978;49.118;12.146;2023-10-19T05:36:21;95891.63;;;6.76;100.00
62025;BME280;47978;49.118;12.146;2023-10-19T05:40:23;95894.38;;;6.76;100.00
62025;BME280;47978;49.118;12.146;2023-10-19T05:44:26;95890.69;;;6.72;100.00
62025;BME280;47978;49.118;12.146;2023-10-19T05:48:27;95889.22;;;6.66;100.00
62025;BME280;47978;49.118;12.146;2023-10-19T05:52:28;95883.06;;;6.69;100.00
62025;BME280;47978;49.118;12.146;2023-10-19T05:56:30;95861.56;;;6.63;100.00
62025;BME280;47978;49.118;12.146;2023-10-19T06:00:33;95825.84;;;6.54;100.00
62025;BME280;47978;49.118;12.146;2023-10-19T06:04:34;95817.16;;;6.61;100.00
62025;BME280;47978;49.118;12.146;2023-10-19T06:08:36;95811.00;;;6.81;100.00
62025;BME280;47978;49.118;12.146;2023-10-19T06:12:37;95770.59;;;6.99;100.00
62025;BME280;47978;49.118;12.146;2023-10-19T06:16:40;95780.47;;;7.09;100.00
62025;BME280;47978;49.118;12.146;2023-10-19T06:20:42;95801.44;;;7.22;100.00
62025;BME280;47978;49.118;12.146;2023-10-19T06:24:44;95823.59;;;7.17;100.00
62025;BME280;47978;49.118;12.146;2023-10-19T06:28:45;95813.88;;;7.28;100.00
62025;BME280;47978;49.118;12.146;2023-10-19T06:32:49;95818.72;;;7.40;100.00
62025;BME280;47978;49.118;12.146;2023-10-19T06:36:51;95817.91;;;7.22;100.00
62025;BME280;47978;49.118;12.146;2023-10-19T06:40:52;95816.25;;;7.47;100.00
62025;BME280;47978;49.118;12.146;2023-10-19T06:44:53;95808.63;;;7.61;100.00
62025;BME280;47978;49.118;12.146;2023-10-19T06:48:56;95804.47;;;7.85;100.00
62025;BME280;47978;49.118;12.146;2023-10-19T06:52:57;95802.69;;;7.89;100.00
62025;BME280;47978;49.118;12.146;2023-10-19T06:56:59;95810.28;;;7.92;100.00
62025;BME280;47978;49.118;12.146;2023-10-19T07:01:00;95816.28;;;7.94;100.00
62025;BME280;47978;49.118;12.146;2023-10-19T07:05:03;95805.59;;;7.93;100.00
62025;BME280;47978;49.118;12.146;2023-10-19T07:09:05;95806.03;;;8.33;100.00
62025;BME280;47978;49.118;12.146;2023-10-19T07:13:06;95818.66;;;8.43;100.00
62025;BME280;47978;49.118;12.146;2023-10-19T07:17:08;95822.69;;;8.66;100.00
62025;BME280;47978;49.118;12.146;2023-10-19T07:21:11;95814.50;;;8.78;100.00
62025;BME280;47978;49.118;12.146;2023-10-19T07:25:12;95801.41;;;9.30;100.00
62025;BME280;47978;49.118;12.146;2023-10-19T07:29:13;95803.00;;;8.97;100.00
62025;BME280;47978;49.118;12.146;2023-10-19T07:33:17;95802.56;;;9.08;97.65
62025;BME280;47978;49.118;12.146;2023-10-19T07:37:20;95806.63;;;9.43;96.04
62025;BME280;47978;49.118;12.146;2023-10-19T07:41:22;95802.94;;;9.39;94.25
62025;BME280;47978;49.118;12.146;2023-10-19T07:45:23;95799.91;;;9.32;96.86
62025;BME280;47978;49.118;12.146;2023-10-19T07:49:24;95801.50;;;9.66;91.94
62025;BME280;47978;49.118;12.146;2023-10-19T07:53:27;95796.72;;;9.88;93.14
62025;BME280;47978;49.118;12.146;2023-10-19T07:57:29;95810.09;;;10.10;94.38
62025;BME280;47978;49.118;12.146;2023-10-19T08:01:30;95800.75;;;10.15;92.50
62025;BME280;47978;49.118;12.146;2023-10-19T08:05:32;95803.53;;;10.40;90.38
62025;BME280;47978;49.118;12.146;2023-10-19T08:09:35;95793.53;;;10.47;92.05
62025;BME280;47978;49.118;12.146;2023-10-19T08:13:36;95784.19;;;10.92;89.30
62025;BME280;47978;49.118;12.146;2023-10-19T08:17:39;95791.91;;;10.99;87.19
62025;BME280;47978;49.118;12.146;2023-10-19T08:21:41;95790.28;;;11.26;84.46
62025;BME280;47978;49.118;12.146;2023-10-19T08:25:43;95789.00;;;11.08;85.41
62025;BME280;47978;49.118;12.146;2023-10-19T08:29:56;95789.47;;;11.54;84.52
62025;BME280;47978;49.118;12.146;2023-10-19T08:33:57;95791.38;;;11.65;83.52
62025;BME280;47978;49.118;12.146;2023-10-19T08:37:59;95783.31;;;11.44;82.74
62025;BME280;47978;49.118;12.146;2023-10-19T08:42:02;95789.91;;;11.12;82.72
62025;BME280;47978;49.118;12.146;2023-10-19T08:46:03;95785.22;;;11.72;81.24
62025;BME280;47978;49.118;12.146;2023-10-19T08:50:05;95770.19;;;11.41;82.90
62025;BME280;47978;49.118;12.146;2023-10-19T08:54:07;95764.72;;;11.45;82.09
62025;BME280;47978;49.118;12.146;2023-10-19T08:58:10;95765.16;;;11.31;81.95
62025;BME280;47978;49.118;12.146;2023-10-19T09:02:11;95755.34;;;11.49;82.90
62025;BME280;47978;49.118;12.146;2023-10-19T09:06:12;95757.00;;;11.22;82.83
62025;BME280;47978;49.118;12.146;2023-10-19T09:10:15;95753.22;;;11.43;80.91
62025;BME280;47978;49.118;12.146;2023-10-19T09:14:19;95760.13;;;11.65;81.64
62025;BME280;47978;49.118;12.146;2023-10-19T09:18:31;95757.94;;;11.58;82.04
62025;BME280;47978;49.118;12.146;2023-10-19T09:22:34;95757.66;;;11.91;81.35
62025;BME280;47978;49.118;12.146;2023-10-19T09:26:36;95760.50;;;12.11;80.93
62025;BME280;47978;49.118;12.146;2023-10-19T09:30:39;95778.13;;;11.87;82.55
62025;BME280;47978;49.118;12.146;2023-10-19T09:34:40;95780.59;;;11.76;82.31
62025;BME280;47978;49.118;12.146;2023-10-19T09:38:45;95775.47;;;11.62;82.93
62025;BME280;47978;49.118;12.146;2023-10-19T09:42:47;95762.53;;;11.82;83.07
62025;BME280;47978;49.118;12.146;2023-10-19T09:46:52;95772.47;;;12.31;81.23
62025;BME280;47978;49.118;12.146;2023-10-19T09:50:58;95769.09;;;12.06;82.64
62025;BME280;47978;49.118;12.146;2023-10-19T09:55:00;95771.47;;;12.23;81.98
62025;BME280;47978;49.118;12.146;2023-10-19T09:59:05;95781.31;;;12.36;82.35
62025;BME280;47978;49.118;12.146;2023-10-19T10:03:08;95772.00;;;12.29;81.97
62025;BME280;47978;49.118;12.146;2023-10-19T10:07:30;95761.22;;;11.92;83.04
62025;BME280;47978;49.118;12.146;2023-10-19T10:11:42;95769.53;;;12.08;83.27
62025;BME280;47978;49.118;12.146;2023-10-19T10:15:44;95769.63;;;12.27;82.66
62025;BME280;47978;49.118;12.146;2023-10-19T10:19:50;95758.47;;;12.08;82.19
62025;BME280;47978;49.118;12.146;2023-10-19T10:23:54;95740.94;;;12.04;81.47
62025;BME280;47978;49.118;12.146;2023-10-19T10:27:56;95747.91;;;11.98;82.28
62025;BME280;47978;49.118;12.146;2023-10-19T10:31:58;95735.03;;;11.89;82.84
62025;BME280;47978;49.118;12.146;2023-10-19T10:36:01;95734.88;;;11.98;84.40
62025;BME280;47978;49.118;12.146;2023-10-19T10:40:02;95745.03;;;11.78;85.55
62025;BME280;47978;49.118;12.146;2023-10-19T10:44:04;95735.03;;;12.05;86.47
62025;BME280;47978;49.118;12.146;2023-10-19T10:48:10;95725.47;;;12.03;88.33
62025;BME280;47978;49.118;12.146;2023-10-19T10:52:13;95714.06;;;12.04;88.02
62025;BME280;47978;49.118;12.146;2023-10-19T10:56:15;95715.91;;;12.16;88.11
62025;BME280;47978;49.118;12.146;2023-10-19T11:00:16;95708.41;;;11.85;88.05
62025;BME280;47978;49.118;12.146;2023-10-19T11:04:18;95689.72;;;11.98;88.89
62025;BME280;47978;49.118;12.146;2023-10-19T11:08:24;95680.44;;;11.42;92.37
62025;BME280;47978;49.118;12.146;2023-10-19T11:12:26;95670.19;;;11.90;90.75
62025;BME280;47978;49.118;12.146;2023-10-19T11:16:27;95667.50;;;11.78;91.68
62025;BME280;47978;49.118;12.146;2023-10-19T11:20:29;95655.53;;;11.90;91.46
62025;BME280;47978;49.118;12.146;2023-10-19T11:24:32;95644.63;;;11.81;94.85
62025;BME280;47978;49.118;12.146;2023-10-19T11:28:34;95640.69;;;11.66;95.63
62025;BME280;47978;49.118;12.146;2023-10-19T11:32:35;95633.31;;;11.39;98.22
62025;BME280;47978;49.118;12.146;2023-10-19T11:36:37;95624.47;;;11.33;99.54
62025;BME280;47978;49.118;12.146;2023-10-19T11:40:40;95632.06;;;11.36;100.00
62025;BME280;47978;49.118;12.146;2023-10-19T11:44:41;95650.97;;;11.66;99.30
62025;BME280;47978;49.118;12.146;2023-10-19T11:48:43;95641.00;;;11.61;100.00
62025;BME280;47978;49.118;12.146;2023-10-19T11:52:45;95633.22;;;11.67;98.35
62025;BME280;47978;49.118;12.146;2023-10-19T11:56:48;95624.34;;;11.77;97.42
62025;BME280;47978;49.118;12.146;2023-10-19T12:00:49;95611.25;;;11.11;100.00
62025;BME280;47978;49.118;12.146;2023-10-19T12:04:50;95596.28;;;10.96;100.00
62025;BME280;47978;49.118;12.146;2023-10-19T12:08:52;95601.00;;;11.59;100.00
62025;BME280;47978;49.118;12.146;2023-10-19T12:12:55;95592.78;;;11.98;100.00
62025;BME280;47978;49.118;12.146;2023-10-19T12:17:02;95593.69;;;12.02;98.20
62025;BME280;47978;49.118;12.146;2023-10-19T12:21:04;95596.88;;;12.04;97.27
62025;BME280;47978;49.118;12.146;2023-10-19T12:25:05;95585.53;;;12.67;94.28
62025;BME280;47978;49.118;12.146;2023-10-19T12:29:08;95587.88;;;12.88;93.80
62025;BME280;47978;49.118;12.146;2023-10-19T12:33:09;95589.53;;;13.12;93.45
62025;BME280;47978;49.118;12.146;2023-10-19T12:37:11;95598.38;;;12.36;95.81
62025;BME280;47978;49.118;12.146;2023-10-19T12:41:12;95590.13;;;12.59;94.95
62025;BME280;47978;49.118;12.146;2023-10-19T12:45:15;95585.16;;;12.69;95.96
62025;BME280;47978;49.118;12.146;2023-10-19T12:49:17;95584.78;;;12.70;97.59
62025;BME280;47978;49.118;12.146;2023-10-19T12:53:18;95581.75;;;12.36;96.05
62025;BME280;47978;49.118;12.146;2023-10-19T12:57:19;95582.03;;;12.51;98.33
62025;BME280;47978;49.118;12.146;2023-10-19T13:01:22;95576.69;;;12.62;96.22
62025;BME280;47978;49.118;12.146;2023-10-19T13:05:24;95585.16;;;12.10;97.34
62025;BME280;47978;49.118;12.146;2023-10-19T13:09:25;95585.53;;;11.58;99.53
62025;BME280;47978;49.118;12.146;2023-10-19T13:13:27;95591.28;;;11.84;99.62
62025;BME280;47978;49.118;12.146;2023-10-19T13:17:30;95593.34;;;11.71;100.00
62025;BME280;47978;49.118;12.146;2023-10-19T13:21:31;95586.44;;;11.97;99.41
62025;BME280;47978;49.118;12.146;2023-10-19T13:25:33;95588.00;;;12.14;97.61
62025;BME280;47978;49.118;12.146;2023-10-19T13:29:34;95584.06;;;12.15;97.46
62025;BME280;47978;49.118;12.146;2023-10-19T13:33:37;95581.91;;;11.89;98.65
62025;BME280;47978;49.118;12.146;2023-10-19T13:37:39;95563.06;;;12.14;100.00
62025;BME280;47978;49.118;12.146;2023-10-19T13:41:40;95571.59;;;11.70;100.00
62025;BME280;47978;49.118;12.146;2023-10-19T13:45:42;95567.94;;;12.21;99.69
62025;BME280;47978;49.118;12.146;2023-10-19T13:49:45;95567.88;;;12.17;100.00
62025;BME280;47978;49.118;12.146;2023-10-19T13:53:46;95556.28;;;12.31;100.00
62025;BME280;47978;49.118;12.146;2023-10-19T13:57:47;95560.75;;;12.16;100.00
62025;BME280;47978;49.118;12.146;2023-10-19T14:01:49;95549.38;;;11.51;100.00
62025;BME280;47978;49.118;12.146;2023-10-19T14:05:52;95542.72;;;11.87;100.00
62025;BME280;47978;49.118;12.146;2023-10-19T14:09:53;95526.31;;;11.98;100.00
62025;BME280;47978;49.118;12.146;2023-10-19T14:13:54;95501.97;;;11.87;100.00
62025;BME280;47978;49.118;12.146;2023-10-19T14:17:56;95534.84;;;12.08;100.00
62025;BME280;47978;49.118;12.146;2023-10-19T14:21:59;95536.34;;;12.64;100.00
62025;BME280;47978;49.118;12.146;2023-10-19T14:26:00;95531.19;;;12.86;99.70
62025;BME280;47978;49.118;12.146;2023-10-19T14:30:02;95540.69;;;12.85;98.35
62025;BME280;47978;49.118;12.146;2023-10-19T14:34:04;95535.91;;;12.62;99.61
62025;BME280;47978;49.118;12.146;2023-10-19T14:38:06;95528.50;;;12.27;100.00
62025;BME280;47978;49.118;12.146;2023-10-19T14:42:08;95521.91;;;12.55;100.00
62025;BME280;47978;49.118;12.146;2023-10-19T14:46:09;95518.31;;;12.54;100.00
62025;BME280;47978;49.118;12.146;2023-10-19T14:50:11;95523.31;;;12.26;100.00
62025;BME280;47978;49.118;12.146;2023-10-19T14:54:14;95515.91;;;12.30;100.00
62025;BME280;47978;49.118;12.146;2023-10-19T14:58:17;95514.25;;;12.48;100.00
62025;BME280;47978;49.118;12.146;2023-10-19T15:02:19;95515.97;;;12.33;100.00
62025;BME280;47978;49.118;12.146;2023-10-19T15:06:20;95529.59;;;12.03;100.00
62025;BME280;47978;49.118;12.146;2023-10-19T15:10:23;95535.41;;;12.37;100.00
62025;BME280;47978;49.118;12.146;2023-10-19T15:14:25;95539.28;;;12.52;100.00
62025;BME280;47978;49.118;12.146;2023-10-19T15:18:26;95533.84;;;12.36;100.00
62025;BME280;47978;49.118;12.146;2023-10-19T15:22:28;95530.72;;;12.18;100.00
62025;BME280;47978;49.118;12.146;2023-10-19T15:26:30;95518.97;;;12.25;100.00
62025;BME280;47978;49.118;12.146;2023-10-19T15:30:32;95511.59;;;12.32;100.00
62025;BME280;47978;49.118;12.146;2023-10-19T15:34:33;95514.78;;;12.15;100.00
62025;BME280;47978;49.118;12.146;2023-10-19T15:38:35;95515.69;;;12.00;100.00
62025;BME280;47978;49.118;12.146;2023-10-19T15:42:37;95503.28;;;11.93;100.00
62025;BME280;47978;49.118;12.146;2023-10-19T15:46:39;95509.75;;;11.82;100.00
62025;BME280;47978;49.118;12.146;2023-10-19T15:50:40;95517.47;;;11.73;100.00
62025;BME280;47978;49.118;12.146;2023-10-19T15:54:42;95502.09;;;11.40;100.00
62025;BME280;47978;49.118;12.146;2023-10-19T15:58:44;95489.25;;;11.32;100.00
62025;BME280;47978;49.118;12.146;2023-10-19T16:02:46;95489.78;;;11.37;100.00
62025;BME280;47978;49.118;12.146;2023-10-19T16:06:48;95478.81;;;11.60;100.00
62025;BME280;47978;49.118;12.146;2023-10-19T16:10:49;95477.63;;;11.42;100.00
62025;BME280;47978;49.118;12.146;2023-10-19T16:14:52;95458.47;;;11.17;100.00
62025;BME280;47978;49.118;12.146;2023-10-19T16:18:53;95466.97;;;11.24;100.00
62025;BME280;47978;49.118;12.146;2023-10-19T16:22:55;95469.53;;;11.33;100.00
62025;BME280;47978;49.118;12.146;2023-10-19T16:26:56;95476.88;;;11.10;100.00
62025;BME280;47978;49.118;12.146;2023-10-19T16:31:02;95471.09;;;10.83;100.00
62025;BME280;47978;49.118;12.146;2023-10-19T16:35:04;95457.38;;;10.71;100.00
62025;BME280;47978;49.118;12.146;2023-10-19T16:39:06;95460.50;;;10.53;100.00
62025;BME280;47978;49.118;12.146;2023-10-19T16:43:07;95460.69;;;10.61;100.00
62025;BME280;47978;49.118;12.146;2023-10-19T16:47:10;95471.44;;;10.50;100.00
62025;BME280;47978;49.118;12.146;2023-10-19T16:51:11;95464.69;;;10.47;100.00
62025;BME280;47978;49.118;12.146;2023-10-19T16:55:13;95444.28;;;10.36;100.00
62025;BME280;47978;49.118;12.146;2023-10-19T16:59:14;95433.22;;;10.36;100.00
62025;BME280;47978;49.118;12.146;2023-10-19T17:03:17;95429.69;;;10.23;100.00
62025;BME280;47978;49.118;12.146;2023-10-19T17:07:19;95428.75;;;10.31;100.00
62025;BME280;47978;49.118;12.146;2023-10-19T17:11:20;95431.97;;;10.65;100.00
62025;BME280;47978;49.118;12.146;2023-10-19T17:15:21;95437.94;;;10.35;100.00
62025;BME280;47978;49.118;12.146;2023-10-19T17:19:24;95440.81;;;10.39;100.00
62025;BME280;47978;49.118;12.146;2023-10-19T17:23:25;95444.16;;;10.32;100.00
62025;BME280;47978;49.118;12.146;2023-10-19T17:27:27;95436.81;;;10.08;100.00
62025;BME280;47978;49.118;12.146;2023-10-19T17:31:28;95432.72;;;10.18;100.00
62025;BME280;47978;49.118;12.146;2023-10-19T17:35:31;95429.66;;;9.91;100.00
62025;BME280;47978;49.118;12.146;2023-10-19T17:39:33;95432.41;;;9.91;100.00
62025;BME280;47978;49.118;12.146;2023-10-19T17:43:34;95436.88;;;9.96;100.00
62025;BME280;47978;49.118;12.146;2023-10-19T17:47:36;95418.59;;;9.91;100.00
62025;BME280;47978;49.118;12.146;2023-10-19T17:51:38;95422.22;;;9.80;100.00
62025;BME280;47978;49.118;12.146;2023-10-19T17:55:40;95399.69;;;9.78;100.00
62025;BME280;47978;49.118;12.146;2023-10-19T17:59:42;95393.13;;;9.98;100.00
62025;BME280;47978;49.118;12.146;2023-10-19T18:03:43;95391.53;;;10.13;100.00
62025;BME280;47978;49.118;12.146;2023-10-19T18:07:46;95366.31;;;9.83;100.00
62025;BME280;47978;49.118;12.146;2023-10-19T18:11:48;95355.34;;;9.71;100.00
62025;BME280;47978;49.118;12.146;2023-10-19T18:15:49;95349.59;;;10.07;100.00
62025;BME280;47978;49.118;12.146;2023-10-19T18:19:51;95373.44;;;10.28;100.00
62025;BME280;47978;49.118;12.146;2023-10-19T18:23:54;95377.72;;;10.13;100.00
62025;BME280;47978;49.118;12.146;2023-10-19T18:27:55;95377.34;;;9.83;100.00
62025;BME280;47978;49.118;12.146;2023-10-19T18:31:57;95375.47;;;9.71;100.00
62025;BME280;47978;49.118;12.146;2023-10-19T18:35:59;95377.31;;;9.67;100.00
62025;BME280;47978;49.118;12.146;2023-10-19T18:40:02;95373.09;;;9.85;100.00
62025;BME280;47978;49.118;12.146;2023-10-19T18:44:03;95372.66;;;9.55;100.00
62025;BME280;47978;49.118;12.146;2023-10-19T18:48:05;95367.50;;;9.54;100.00
62025;BME280;47978;49.118;12.146;2023-10-19T18:52:07;95359.97;;;9.38;100.00
62025;BME280;47978;49.118;12.146;2023-10-19T18:56:10;95366.09;;;9.32;100.00
62025;BME280;47978;49.118;12.146;2023-10-19T19:00:12;95358.06;;;9.27;100.00
62025;BME280;47978;49.118;12.146;2023-10-19T19:04:13;95361.53;;;9.23;100.00
62025;BME280;47978;49.118;12.146;2023-10-19T19:08:15;95354.91;;;9.12;100.00
62025;BME280;47978;49.118;12.146;2023-10-19T19:12:18;95342.50;;;9.06;100.00
62025;BME280;47978;49.118;12.146;2023-10-19T19:16:20;95340.69;;;8.98;100.00
62025;BME280;47978;49.118;12.146;2023-10-19T19:20:22;95342.75;;;9.01;100.00
62025;BME280;47978;49.118;12.146;2023-10-19T19:24:24;95329.34;;;8.87;100.00
62025;BME280;47978;49.118;12.146;2023-10-19T19:28:26;95327.53;;;8.79;100.00
62025;BME280;47978;49.118;12.146;2023-10-19T19:32:28;95312.53;;;8.64;100.00
62025;BME280;47978;49.118;12.146;2023-10-19T19:36:30;95289.69;;;8.64;100.00
62025;BME280;47978;49.118;12.146;2023-10-19T19:40:31;95277.44;;;8.49;100.00
62025;BME280;47978;49.118;12.146;2023-10-19T19:44:34;95289.59;;;8.60;100.00
62025;BME280;47978;49.118;12.146;2023-10-19T19:48:36;95294.97;;;8.69;100.00
62025;BME280;47978;49.118;12.146;2023-10-19T19:52:37;95286.97;;;8.39;100.00
62025;BME280;47978;49.118;12.146;2023-10-19T19:56:39;95262.97;;;8.27;100.00
62025;BME280;47978;49.118;12.146;2023-10-19T20:00:42;95241.53;;;8.21;100.00
62025;BME280;47978;49.118;12.146;2023-10-19T20:04:43;95263.91;;;8.31;100.00
62025;BME280;47978;49.118;12.146;2023-10-19T20:08:45;95299.22;;;8.29;100.00
62025;BME280;47978;49.118;12.146;2023-10-19T20:12:46;95306.44;;;8.71;100.00
62025;BME280;47978;49.118;12.146;2023-10-19T20:16:49;95324.47;;;8.56;100.00
62025;BME280;47978;49.118;12.146;2023-10-19T20:20:50;95342.13;;;8.80;100.00
62025;BME280;47978;49.118;12.146;2023-10-19T20:24:52;95341.72;;;8.41;100.00
62025;BME280;47978;49.118;12.146;2023-10-19T20:28:53;95344.44;;;8.28;100.00
62025;BME280;47978;49.118;12.146;2023-10-19T20:32:56;95328.72;;;8.29;100.00
62025;BME280;47978;49.118;12.146;2023-10-19T20:36:57;95315.75;;;8.29;100.00
62025;BME280;47978;49.118;12.146;2023-10-19T20:40:59;95301.75;;;8.34;100.00
62025;BME280;47978;49.118;12.146;2023-10-19T20:45:00;95295.00;;;8.32;100.00
62025;BME280;47978;49.118;12.146;2023-10-19T20:49:03;95288.22;;;8.29;100.00
62025;BME280;47978;49.118;12.146;2023-10-19T20:53:05;95285.91;;;8.19;100.00
62025;BME280;47978;49.118;12.146;2023-10-19T20:57:06;95276.06;;;8.18;100.00
62025;BME280;47978;49.118;12.146;2023-10-19T21:01:07;95249.25;;;8.15;100.00